createdAt,value
2023-05-11T00:02:06.815Z,12.93
2023-05-11T00:07:10.193Z,12.74
2023-05-11T00:12:12.343Z,12.67
2023-05-11T00:17:14.421Z,12.53
2023-05-11T00:22:17.724Z,12.40
2023-05-11T00:27:19.981Z,12.33
2023-05-11T00:32:22.101Z,12.33
2023-05-11T00:37:26.186Z,12.14
2023-05-11T00:42:28.074Z,12.00
2023-05-11T00:47:31.061Z,11.90
2023-05-11T00:52:34.713Z,11.75
2023-05-11T00:57:38.857Z,11.62
2023-05-11T01:02:41.647Z,11.59
2023-05-11T01:08:04.017Z,11.40
2023-05-11T01:13:14.905Z,11.44
2023-05-11T01:18:22.704Z,11.30
2023-05-11T01:24:00.490Z,11.13
2023-05-11T01:29:20.026Z,10.99
2023-05-11T01:34:26.653Z,10.93
2023-05-11T01:39:32.989Z,10.80
2023-05-11T01:44:37.196Z,10.74
2023-05-11T01:49:44.424Z,10.70
2023-05-11T01:54:48.353Z,10.56
2023-05-11T01:59:52.617Z,10.49
2023-05-11T02:04:57.969Z,10.38
2023-05-11T02:10:00.892Z,10.33
2023-05-11T02:15:04.479Z,10.23
2023-05-11T02:20:11.246Z,10.11
2023-05-11T02:25:15.930Z,10.09
2023-05-11T02:30:18.786Z,10.04
2023-05-11T02:35:25.744Z,9.96
2023-05-11T02:40:32.061Z,9.86
2023-05-11T02:45:35.425Z,9.75
2023-05-11T02:50:41.267Z,9.70
2023-05-11T02:55:43.458Z,9.59
2023-05-11T03:00:46.129Z,9.51
2023-05-11T03:05:49.787Z,9.48
2023-05-11T03:10:52.990Z,9.41
2023-05-11T03:15:56.000Z,9.43
2023-05-11T03:21:01.636Z,9.32
2023-05-11T03:26:05.063Z,9.25
2023-05-11T03:31:07.396Z,9.23
2023-05-11T03:36:12.793Z,9.25
2023-05-11T03:41:16.955Z,9.35
2023-05-11T03:46:21.741Z,9.38
2023-05-11T03:51:25.562Z,9.65
2023-05-11T03:56:27.444Z,9.81
2023-05-11T04:01:30.270Z,9.92
2023-05-11T04:06:33.465Z,9.98
2023-05-11T04:11:37.092Z,10.16
2023-05-11T04:16:39.308Z,10.26
2023-05-11T04:21:42.735Z,10.49
2023-05-11T04:26:44.914Z,10.73
2023-05-11T04:31:47.206Z,11.07
2023-05-11T04:36:51.607Z,12.18
2023-05-11T04:41:54.098Z,14.08
2023-05-11T04:46:56.580Z,15.52
2023-05-11T04:52:00.131Z,16.05
2023-05-11T04:57:02.421Z,17.19
2023-05-11T05:02:04.824Z,17.52
2023-05-11T05:07:08.248Z,17.93
2023-05-11T05:12:10.362Z,18.06
2023-05-11T05:17:12.117Z,18.73
2023-05-11T05:22:15.659Z,19.52
2023-05-11T05:27:17.893Z,20.03
2023-05-11T05:32:20.532Z,20.23
2023-05-11T05:37:24.438Z,19.96
2023-05-11T05:42:26.549Z,21.07
2023-05-11T05:47:28.714Z,20.74
2023-05-11T05:52:32.143Z,20.45
2023-05-11T05:57:34.012Z,20.03
2023-05-11T06:02:36.384Z,20.64
2023-05-11T06:07:39.999Z,21.09
2023-05-11T06:12:41.775Z,21.30
2023-05-11T06:17:44.029Z,21.17
2023-05-11T06:22:47.625Z,21.87
2023-05-11T06:27:49.487Z,22.03
2023-05-11T06:32:51.867Z,21.70
2023-05-11T06:37:55.414Z,22.11
2023-05-11T06:42:57.132Z,22.91
2023-05-11T06:47:59.220Z,22.30
2023-05-11T06:53:02.770Z,20.99
2023-05-11T06:58:04.798Z,20.66
2023-05-11T07:03:08.232Z,21.02
2023-05-11T07:08:12.101Z,20.99
2023-05-11T07:13:14.266Z,21.74
2023-05-11T07:18:16.469Z,23.02
2023-05-11T07:23:20.578Z,23.31
2023-05-11T07:28:22.477Z,23.66
2023-05-11T07:33:25.040Z,22.64
2023-05-11T07:38:28.474Z,24.48
2023-05-11T07:43:30.786Z,24.23
2023-05-11T07:48:32.559Z,24.83
2023-05-11T07:53:36.037Z,24.13
2023-05-11T07:58:38.203Z,23.47
2023-05-11T08:03:40.506Z,24.32
2023-05-11T08:08:44.006Z,25.18
2023-05-11T08:13:46.081Z,24.50
2023-05-11T08:18:48.767Z,24.76
2023-05-11T08:23:52.493Z,24.53
2023-05-11T08:28:54.668Z,24.51
2023-05-11T08:33:57.119Z,23.79
2023-05-11T08:39:00.685Z,24.63
2023-05-11T08:44:03.181Z,26.72
2023-05-11T08:49:05.597Z,26.47
2023-05-11T08:54:09.235Z,26.70
2023-05-11T08:59:14.120Z,26.48
2023-05-11T09:04:17.302Z,27.07
2023-05-11T09:09:21.038Z,26.28
2023-05-11T09:14:27.079Z,28.86
2023-05-11T09:19:29.700Z,28.30
2023-05-11T09:24:33.654Z,28.69
2023-05-11T09:29:36.250Z,26.65
2023-05-11T09:34:43.090Z,27.66
2023-05-11T09:40:14.232Z,27.24
2023-05-11T09:45:10.574Z,28.21
2023-05-11T09:50:17.729Z,27.95
2023-05-11T09:55:21.715Z,28.08
2023-05-11T10:00:23.899Z,28.82
2023-05-11T10:05:26.476Z,27.87
2023-05-11T10:10:31.334Z,27.61
2023-05-11T10:15:35.620Z,25.34
2023-05-11T10:20:39.049Z,28.56
2023-05-11T10:25:43.112Z,27.87
2023-05-11T10:30:46.106Z,28.67
2023-05-11T10:35:50.030Z,27.52
2023-05-11T10:41:02.361Z,27.25
2023-05-11T10:46:15.362Z,26.80
2023-05-11T10:51:41.906Z,26.79
2023-05-11T10:56:55.816Z,26.91
2023-05-11T11:01:58.390Z,26.23
2023-05-11T11:07:07.149Z,26.31
2023-05-11T11:12:11.479Z,26.29
2023-05-11T11:17:25.601Z,26.44
2023-05-11T11:22:45.065Z,25.45
2023-05-11T11:27:59.262Z,25.74
2023-05-11T11:33:32.990Z,26.29
2023-05-11T11:38:58.607Z,25.65
2023-05-11T11:44:03.053Z,25.25
2023-05-11T11:49:09.685Z,25.68
2023-05-11T11:54:11.886Z,24.67
2023-05-11T11:59:15.852Z,25.45
2023-05-11T12:04:34.468Z,25.46
2023-05-11T12:09:39.027Z,24.23
2023-05-11T12:14:43.121Z,23.92
2023-05-11T12:19:45.799Z,23.82
2023-05-11T12:24:48.504Z,24.11
2023-05-11T12:29:52.076Z,23.95
2023-05-11T12:35:01.209Z,23.83
2023-05-11T12:40:03.854Z,23.92
2023-05-11T12:45:08.884Z,24.58
2023-05-11T12:50:11.369Z,25.17
2023-05-11T12:55:13.668Z,24.78
2023-05-11T13:00:19.450Z,24.21
2023-05-11T13:05:26.294Z,23.87
2023-05-11T13:10:28.418Z,23.66
2023-05-11T13:15:32.245Z,23.16
2023-05-11T13:20:34.773Z,23.45
2023-05-11T13:25:52.532Z,23.39
2023-05-11T13:31:01.404Z,23.19
2023-05-11T13:36:04.151Z,23.53
2023-05-11T13:41:06.724Z,23.12
2023-05-11T13:46:10.474Z,22.91
2023-05-11T13:51:12.258Z,23.13
2023-05-11T13:56:14.315Z,23.06
2023-05-11T14:01:17.862Z,23.54
2023-05-11T14:06:22.655Z,23.35
2023-05-11T14:11:24.782Z,23.02
2023-05-11T14:16:28.241Z,22.96
2023-05-11T14:21:30.644Z,23.20
2023-05-11T14:26:33.070Z,23.55
2023-05-11T14:31:36.856Z,24.17
2023-05-11T14:36:38.851Z,24.10
2023-05-11T14:41:41.223Z,23.93
2023-05-11T14:46:44.732Z,24.14
2023-05-11T14:51:47.070Z,23.45
2023-05-11T14:56:49.274Z,23.75
2023-05-11T15:01:53.138Z,24.30
2023-05-11T15:06:55.434Z,24.39
2023-05-11T15:11:57.548Z,23.69
2023-05-11T15:17:01.076Z,23.38
2023-05-11T15:22:03.482Z,23.71
2023-05-11T15:27:06.044Z,24.16
2023-05-11T15:32:13.131Z,23.46
2023-05-11T15:37:15.045Z,22.80
2023-05-11T15:42:17.410Z,22.51
2023-05-11T15:47:21.253Z,22.49
2023-05-11T15:52:23.973Z,22.48
2023-05-11T15:57:25.990Z,22.48
2023-05-11T16:02:29.403Z,22.63
2023-05-11T16:07:31.716Z,22.82
2023-05-11T16:12:33.836Z,22.80
2023-05-11T16:17:37.627Z,22.68
2023-05-11T16:22:40.007Z,22.25
2023-05-11T16:27:42.121Z,22.01
2023-05-11T16:32:46.250Z,21.88
2023-05-11T16:37:48.581Z,22.04
2023-05-11T16:42:51.249Z,21.93
2023-05-11T16:47:54.875Z,21.98
2023-05-11T16:52:57.053Z,22.04
2023-05-11T16:57:58.973Z,22.10
2023-05-11T17:03:02.703Z,22.06
2023-05-11T17:08:05.068Z,21.81
2023-05-11T17:13:07.098Z,21.68
2023-05-11T17:18:10.371Z,21.32
2023-05-11T17:23:12.410Z,21.40
2023-05-11T17:28:14.570Z,21.40
2023-05-11T17:33:18.644Z,21.15
2023-05-11T17:38:20.862Z,21.01
2023-05-11T17:43:23.054Z,20.74
2023-05-11T17:48:26.668Z,20.66
2023-05-11T17:53:28.460Z,20.53
2023-05-11T17:58:30.573Z,20.31
2023-05-11T18:03:34.196Z,20.26
2023-05-11T18:08:36.304Z,20.18
2023-05-11T18:13:38.687Z,20.11
2023-05-11T18:18:41.845Z,20.03
2023-05-11T18:23:43.623Z,19.85
2023-05-11T18:28:45.466Z,19.71
2023-05-11T18:33:48.548Z,19.56
2023-05-11T18:38:50.343Z,19.41
2023-05-11T18:43:52.639Z,19.24
2023-05-11T18:48:56.105Z,19.10
2023-05-11T18:53:57.923Z,19.08
2023-05-11T18:58:59.630Z,18.88
2023-05-11T19:04:03.103Z,18.80
2023-05-11T19:09:05.023Z,18.75
2023-05-11T19:14:07.078Z,18.67
2023-05-11T19:19:10.352Z,18.63
2023-05-11T19:24:12.817Z,18.53
2023-05-11T19:29:14.483Z,18.51
2023-05-11T19:34:17.729Z,18.52
2023-05-11T19:39:19.545Z,18.51
2023-05-11T19:44:22.599Z,18.44
2023-05-11T19:49:26.010Z,18.47
2023-05-11T19:54:28.422Z,18.45
2023-05-11T19:59:31.347Z,18.45
2023-05-11T20:04:34.879Z,18.45
2023-05-11T20:09:37.611Z,18.34
2023-05-11T20:14:39.904Z,18.36
2023-05-11T20:19:43.484Z,18.29
2023-05-11T20:24:45.812Z,18.22
2023-05-11T20:29:48.403Z,18.12
2023-05-11T20:34:51.929Z,17.96
2023-05-11T20:39:54.098Z,17.87
2023-05-11T20:44:56.281Z,17.76
2023-05-11T20:49:59.951Z,17.67
2023-05-11T20:55:01.807Z,17.78
2023-05-11T21:00:05.157Z,17.67
2023-05-11T21:05:08.629Z,17.54
2023-05-11T21:10:11.521Z,17.49
2023-05-11T21:15:13.484Z,17.42
2023-05-11T21:20:16.924Z,17.44
2023-05-11T21:25:18.959Z,17.34
2023-05-11T21:30:21.407Z,17.49
2023-05-11T21:35:25.083Z,17.30
2023-05-11T21:40:27.393Z,17.45
2023-05-11T21:45:29.670Z,17.31
2023-05-11T21:50:33.265Z,17.16
2023-05-11T21:55:35.496Z,17.06
2023-05-11T22:00:37.604Z,17.06
2023-05-11T22:05:41.257Z,16.96
2023-05-11T22:10:43.574Z,16.87
2023-05-11T22:15:45.758Z,16.94
2023-05-11T22:20:49.218Z,16.94
2023-05-11T22:25:51.676Z,16.84
2023-05-11T22:30:53.675Z,16.73
2023-05-11T22:35:57.257Z,16.69
2023-05-11T22:40:59.368Z,16.63
2023-05-11T22:46:01.829Z,16.56
2023-05-11T22:51:05.906Z,16.36
2023-05-11T22:56:08.406Z,16.21
2023-05-11T23:01:10.583Z,16.06
2023-05-11T23:06:14.148Z,16.06
2023-05-11T23:11:16.361Z,16.03
2023-05-11T23:16:18.442Z,16.00
2023-05-11T23:21:22.006Z,15.97
2023-05-11T23:26:23.852Z,15.82
2023-05-11T23:31:26.182Z,15.83
2023-05-11T23:36:29.423Z,15.87
2023-05-11T23:41:31.457Z,15.86
2023-05-11T23:46:33.781Z,15.74
2023-05-11T23:51:37.327Z,15.62
2023-05-11T23:56:39.440Z,15.58
